Time;durP1;ratioP1;P1;durP2;ratioP2;P2;SDS_P1;SDS_P2;PMS_P1;PMS_P2;Temp;Humidity;BMP_temperature;BMP_pressure;BME280_temperature;BME280_humidity;BME280_pressure;Samples;Min_cycle;Max_cycle;Signal;HPM_P1;HPM_P2
2022/10/22 00:00:17;;;;;;;11.00;7.43;;;;;;;10.75;100.00;100364.97;5022750;28;20203;-72
2022/10/22 00:02:44;;;;;;;11.20;7.83;;;;;;;10.75;100.00;100362.38;5022515;28;20243;-72
2022/10/22 00:05:13;;;;;;;18.87;9.60;;;;;;;10.73;100.00;100347.66;5025914;28;20280;-72
2022/10/22 00:07:39;;;;;;;21.10;11.73;;;;;;;10.72;100.00;100346.81;5003619;28;20321;-71
2022/10/22 00:10:07;;;;;;;20.57;12.03;;;;;;;10.73;100.00;100358.97;5022390;28;20668;-71
2022/10/22 00:12:35;;;;;;;19.83;11.93;;;;;;;10.73;100.00;100368.50;5024783;28;20706;-72
2022/10/22 00:15:01;;;;;;;16.57;10.30;;;;;;;10.73;100.00;100365.91;5020508;28;20212;-71
2022/10/22 00:17:28;;;;;;;17.40;9.40;;;;;;;10.72;100.00;100365.06;5018966;28;20207;-71
2022/10/22 00:19:54;;;;;;;17.07;9.93;;;;;;;10.74;100.00;100362.41;5021546;28;20582;-71
2022/10/22 00:22:21;;;;;;;12.70;7.77;;;;;;;10.73;100.00;100358.97;5022880;28;20235;-70
2022/10/22 00:24:47;;;;;;;16.70;9.10;;;;;;;10.74;100.00;100358.03;5018108;28;20691;-72
2022/10/22 00:27:14;;;;;;;15.03;8.27;;;;;;;10.74;100.00;100367.63;5019857;28;20672;-72
2022/10/22 00:29:42;;;;;;;11.93;8.07;;;;;;;10.72;100.00;100372.03;5020529;28;20269;-71
2022/10/22 00:32:08;;;;;;;12.53;7.17;;;;;;;10.70;100.00;100392.09;5025177;28;20457;-72
2022/10/22 00:34:35;;;;;;;11.27;7.27;;;;;;;10.69;100.00;100390.38;5020268;28;20196;-71
2022/10/22 00:37:01;;;;;;;10.13;7.27;;;;;;;10.67;100.00;100395.63;5021574;28;20204;-72
2022/10/22 00:39:28;;;;;;;14.47;7.90;;;;;;;10.67;100.00;100389.56;5016319;28;20202;-72
2022/10/22 00:41:56;;;;;;;13.73;7.70;;;;;;;10.66;100.00;100374.81;5022919;28;20564;-71
2022/10/22 00:45:01;;;;;;;14.30;7.87;;;;;;;10.67;100.00;100368.72;5016420;28;20192;-71
2022/10/22 00:47:33;;;;;;;11.60;6.57;;;;;;;10.63;100.00;100377.53;5021314;28;20293;-71
2022/10/22 00:50:00;;;;;;;10.90;7.23;;;;;;;10.58;100.00;100369.84;5019494;28;20207;-72
2022/10/22 00:52:27;;;;;;;12.37;7.37;;;;;;;10.53;100.00;100351.72;5018828;28;20223;-72
2022/10/22 00:54:53;;;;;;;10.47;6.83;;;;;;;10.46;100.00;100337.19;5024423;28;20207;-71
2022/10/22 00:57:20;;;;;;;10.30;6.70;;;;;;;10.38;100.00;100328.75;5023002;28;20221;-72
2022/10/22 00:59:48;;;;;;;10.73;7.20;;;;;;;10.30;100.00;100330.69;5021158;28;20206;-72
2022/10/22 01:02:14;;;;;;;10.00;6.70;;;;;;;10.24;100.00;100343.00;5020610;28;20227;-72
2022/10/22 01:04:42;;;;;;;10.63;6.93;;;;;;;10.15;100.00;100342.41;5024414;28;20202;-71
2022/10/22 01:07:15;;;;;;;11.23;7.40;;;;;;;10.12;100.00;100339.91;5020515;28;20200;-71
2022/10/22 01:09:46;;;;;;;10.87;6.77;;;;;;;10.04;100.00;100340.97;5021376;28;20203;-70
2022/10/22 01:12:22;;;;;;;14.13;7.63;;;;;;;9.98;100.00;100348.09;5016144;28;20222;-71
2022/10/22 01:15:03;;;;;;;9.77;6.57;;;;;;;9.91;100.00;100350.03;5021836;28;20211;-72
2022/10/22 01:17:40;;;;;;;10.27;6.80;;;;;;;9.86;100.00;100349.28;5021139;28;20207;-71
2022/10/22 01:20:23;;;;;;;10.90;7.70;;;;;;;9.80;100.00;100347.72;5022228;28;20767;-71
2022/10/22 01:22:59;;;;;;;10.90;6.60;;;;;;;9.73;100.00;100342.72;5016216;28;20223;-71
2022/10/22 01:25:34;;;;;;;9.07;6.33;;;;;;;9.64;100.00;100336.03;5023285;28;20219;-71
2022/10/22 01:28:13;;;;;;;11.20;7.47;;;;;;;9.58;100.00;100331.81;5021603;28;20584;-72
2022/10/22 01:30:42;;;;;;;12.40;6.87;;;;;;;9.54;100.00;100326.75;5022110;28;20204;-70
2022/10/22 01:33:12;;;;;;;11.97;6.60;;;;;;;9.47;100.00;100336.47;5018678;28;20203;-71
2022/10/22 01:35:44;;;;;;;12.03;7.50;;;;;;;9.41;100.00;100336.59;5019116;28;20212;-72
2022/10/22 01:38:14;;;;;;;11.73;6.87;;;;;;;9.37;100.00;100346.25;5019747;28;20200;-71
2022/10/22 01:40:42;;;;;;;9.93;6.87;;;;;;;9.33;100.00;100351.56;5018076;28;20504;-71
2022/10/22 01:43:10;;;;;;;11.60;7.00;;;;;;;9.26;100.00;100354.31;5021216;28;20225;-71
2022/10/22 01:45:40;;;;;;;12.53;7.10;;;;;;;9.23;100.00;100350.94;5022793;28;20227;-72
2022/10/22 01:48:21;;;;;;;12.93;7.13;;;;;;;9.20;100.00;100349.28;5023839;28;20656;-71
2022/10/22 01:51:06;;;;;;;11.20;6.93;;;;;;;9.18;100.00;100338.06;5021679;28;20215;-71
2022/10/22 01:53:41;;;;;;;12.10;7.13;;;;;;;9.18;100.00;100342.38;5015058;28;20210;-71
2022/10/22 01:56:31;;;;;;;11.57;7.67;;;;;;;9.15;100.00;100345.94;5021013;28;20701;-72
2022/10/22 01:59:07;;;;;;;12.77;6.97;;;;;;;9.14;100.00;100365.03;5022212;28;20205;-72
2022/10/22 02:01:41;;;;;;;11.17;7.17;;;;;;;9.18;100.00;100368.41;5018880;28;20217;-72
2022/10/22 02:04:16;;;;;;;13.40;7.40;;;;;;;9.18;100.00;100358.88;5016188;28;20634;-72
2022/10/22 02:06:45;;;;;;;12.00;7.00;;;;;;;9.20;100.00;100359.69;5019809;28;20285;-72
2022/10/22 02:09:15;;;;;;;9.57;6.90;;;;;;;9.24;100.00;100357.88;5018955;28;20206;-71
2022/10/22 02:11:42;;;;;;;12.17;7.03;;;;;;;9.25;100.00;100359.56;5021604;28;20228;-70
2022/10/22 02:14:12;;;;;;;13.80;7.50;;;;;;;9.24;100.00;100357.88;5021977;28;20205;-72
2022/10/22 02:16:41;;;;;;;17.17;8.13;;;;;;;9.25;100.00;100357.84;5017938;28;20709;-71
2022/10/22 02:19:14;;;;;;;12.43;7.60;;;;;;;9.24;100.00;100355.25;5018766;28;20197;-72
2022/10/22 02:21:41;;;;;;;15.20;8.40;;;;;;;9.23;100.00;100356.13;5021769;28;20229;-71
2022/10/22 02:24:07;;;;;;;14.53;8.10;;;;;;;9.23;100.00;100351.81;5018755;28;20197;-72
2022/10/22 02:26:39;;;;;;;11.67;7.63;;;;;;;9.23;100.00;100356.13;5020472;28;20227;-71
2022/10/22 02:29:13;;;;;;;11.93;8.20;;;;;;;9.22;100.00;100359.66;5025188;28;20537;-72
2022/10/22 02:31:43;;;;;;;11.63;7.63;;;;;;;9.22;100.00;100359.66;5019885;28;20221;-71
2022/10/22 02:34:14;;;;;;;11.63;7.70;;;;;;;9.20;100.00;100359.69;5020730;28;20213;-71
2022/10/22 02:36:43;;;;;;;13.83;7.23;;;;;;;9.18;100.00;100358.88;5017990;28;20210;-72
2022/10/22 02:39:12;;;;;;;14.60;7.97;;;;;;;9.17;100.00;100359.75;5022697;28;20205;-72
2022/10/22 02:41:38;;;;;;;13.67;8.50;;;;;;;9.16;100.00;100352.84;5018895;28;20230;-72
2022/10/22 02:44:09;;;;;;;16.43;7.43;;;;;;;9.14;100.00;100354.63;5017296;28;20285;-71
2022/10/22 02:46:36;;;;;;;14.40;7.77;;;;;;;9.12;100.00;100353.81;5011379;28;20201;-71
2022/10/22 02:49:02;;;;;;;12.47;7.90;;;;;;;9.11;100.00;100349.47;5017640;28;20644;-71
2022/10/22 02:51:28;;;;;;;16.03;7.60;;;;;;;9.10;100.00;100345.19;5022239;28;20229;-72
2022/10/22 02:53:56;;;;;;;12.90;7.87;;;;;;;9.10;100.00;100338.25;5085897;22;20234;-71
2022/10/22 02:56:23;;;;;;;12.87;7.80;;;;;;;9.08;100.00;100334.81;5079051;28;20207;-72
2022/10/22 02:58:50;;;;;;;12.47;7.53;;;;;;;9.07;100.00;100338.31;5077163;28;20730;-71
2022/10/22 03:01:16;;;;;;;12.53;7.53;;;;;;;9.04;100.00;100333.19;5078381;28;20203;-72
2022/10/22 03:03:42;;;;;;;14.80;7.20;;;;;;;9.02;100.00;100335.00;5079230;28;20251;-70
2022/10/22 03:06:09;;;;;;;10.23;7.03;;;;;;;9.01;100.00;100341.06;5075980;28;20218;-72
2022/10/22 03:08:35;;;;;;;11.53;7.00;;;;;;;8.99;100.00;100335.06;5078963;28;20230;-72
2022/10/22 03:11:03;;;;;;;11.47;7.20;;;;;;;8.99;100.00;100345.47;5080385;28;20208;-72
2022/10/22 03:13:29;;;;;;;12.20;7.37;;;;;;;8.99;100.00;100339.38;5080360;28;20207;-71
2022/10/22 03:15:56;;;;;;;13.97;7.23;;;;;;;8.98;100.00;100342.88;5074733;28;20211;-71
2022/10/22 03:18:22;;;;;;;12.37;7.80;;;;;;;8.98;100.00;100346.34;5081635;28;20246;-72
2022/10/22 03:20:49;;;;;;;13.13;8.07;;;;;;;8.96;100.00;100347.28;5079313;28;20206;-72
2022/10/22 03:23:19;;;;;;;12.87;7.17;;;;;;;8.96;100.00;100347.28;5077478;28;20229;-72
2022/10/22 03:25:48;;;;;;;11.40;7.07;;;;;;;8.95;100.00;100346.41;5080935;28;20695;-71
2022/10/22 03:28:18;;;;;;;14.57;7.73;;;;;;;8.96;100.00;100340.31;5074549;28;20222;-71
2022/10/22 03:30:45;;;;;;;14.90;8.30;;;;;;;8.95;100.00;100341.19;5069908;28;20688;-72
2022/10/22 03:33:11;;;;;;;10.80;7.10;;;;;;;8.93;100.00;100340.38;5077819;28;20206;-72
2022/10/22 03:35:42;;;;;;;13.47;8.03;;;;;;;8.92;100.00;100341.28;5077191;28;20273;-72
2022/10/22 03:38:08;;;;;;;13.03;7.43;;;;;;;8.93;100.00;100347.34;5075880;28;20216;-72
2022/10/22 03:40:35;;;;;;;11.10;7.27;;;;;;;8.94;100.00;100349.91;5082205;28;20209;-71
2022/10/22 03:43:01;;;;;;;11.67;7.20;;;;;;;8.96;100.00;100332.53;5075797;28;20682;-72
2022/10/22 03:45:29;;;;;;;13.60;8.10;;;;;;;9.02;100.00;100344.50;5076669;28;20285;-72
2022/10/22 03:47:55;;;;;;;13.93;8.20;;;;;;;9.04;100.00;100340.13;5077224;28;20258;-72
2022/10/22 03:50:22;;;;;;;17.57;7.97;;;;;;;9.04;100.00;100342.72;5079536;28;20213;-72
2022/10/22 03:52:48;;;;;;;15.57;7.67;;;;;;;9.04;100.00;100342.72;5075127;28;20207;-72
2022/10/22 03:55:14;;;;;;;12.37;7.70;;;;;;;9.03;100.00;100343.63;5078815;28;20195;-72
2022/10/22 03:57:41;;;;;;;13.27;7.97;;;;;;;9.05;100.00;100341.84;5081209;28;20578;-71
2022/10/22 04:00:09;;;;;;;14.77;8.00;;;;;;;9.08;100.00;100340.03;5083436;28;20211;-71
2022/10/22 04:02:38;;;;;;;14.27;7.90;;;;;;;9.09;100.00;100338.28;5080766;28;20370;-72
2022/10/22 04:05:05;;;;;;;14.57;7.73;;;;;;;9.11;100.00;100344.28;5080390;28;20850;-71
2022/10/22 04:07:31;;;;;;;10.50;6.77;;;;;;;9.12;100.00;100359.00;5083392;28;20197;-72
2022/10/22 04:09:58;;;;;;;11.23;7.27;;;;;;;9.13;100.00;100357.25;5082875;28;20670;-72
2022/10/22 04:12:24;;;;;;;15.23;8.13;;;;;;;9.17;100.00;100351.09;5079692;28;20327;-71
2022/10/22 04:14:50;;;;;;;12.23;7.60;;;;;;;9.22;100.00;100360.50;5081826;28;20269;-72
2022/10/22 04:17:17;;;;;;;17.43;8.13;;;;;;;9.28;100.00;100364.69;5080890;28;20219;-72
2022/10/22 04:19:45;;;;;;;14.90;7.53;;;;;;;9.26;100.00;100359.53;5084609;28;20661;-72
2022/10/22 04:22:11;;;;;;;18.63;8.17;;;;;;;9.32;100.00;100355.06;5079866;28;20693;-72
2022/10/22 04:24:38;;;;;;;12.63;7.37;;;;;;;9.32;100.00;100360.25;5081911;28;20210;-72
2022/10/22 04:27:04;;;;;;;13.80;7.40;;;;;;;9.32;100.00;100361.09;5083679;28;20315;-71
2022/10/22 04:29:31;;;;;;;13.20;8.43;;;;;;;9.32;100.00;100357.66;5083514;28;20842;-72
2022/10/22 04:31:57;;;;;;;15.77;8.83;;;;;;;9.31;100.00;100367.22;5084361;28;20580;-71
2022/10/22 04:34:27;;;;;;;13.60;7.77;;;;;;;9.32;100.00;100378.47;5078220;28;20207;-72
2022/10/22 04:36:55;;;;;;;12.70;7.70;;;;;;;9.31;100.00;100380.22;5073101;28;20593;-71
2022/10/22 04:39:22;;;;;;;13.77;8.23;;;;;;;9.33;100.00;100368.03;5082235;28;20300;-72
2022/10/22 04:41:48;;;;;;;11.73;7.33;;;;;;;9.35;100.00;100370.59;5077428;28;20205;-71
2022/10/22 04:44:15;;;;;;;15.17;8.23;;;;;;;9.36;100.00;100374.94;5078561;28;20222;-72
2022/10/22 04:46:41;;;;;;;12.70;7.87;;;;;;;9.38;100.00;100366.16;5084884;28;20204;-72
2022/10/22 04:49:08;;;;;;;13.67;8.00;;;;;;;9.41;100.00;100365.22;5081221;28;20223;-72
2022/10/22 04:51:34;;;;;;;14.43;8.20;;;;;;;9.41;100.00;100370.44;5078661;28;20719;-72
2022/10/22 04:54:02;;;;;;;14.17;8.07;;;;;;;9.39;100.00;100377.44;5082045;28;20254;-72
2022/10/22 04:56:30;;;;;;;13.33;8.03;;;;;;;9.41;100.00;100386.03;5081910;28;20203;-71
2022/10/22 04:58:59;;;;;;;13.17;7.47;;;;;;;9.42;100.00;100382.56;5077621;28;20700;-72
2022/10/22 05:01:27;;;;;;;16.60;7.97;;;;;;;9.50;100.00;100383.22;5082689;28;20209;-72
2022/10/22 05:03:56;;;;;;;12.90;8.03;;;;;;;9.56;100.00;100379.59;5079997;28;20736;-72
2022/10/22 05:06:24;;;;;;;14.27;8.40;;;;;;;9.63;100.00;100376.78;5079014;28;20204;-72
2022/10/22 05:08:54;;;;;;;14.83;8.30;;;;;;;9.63;100.00;100381.16;5079876;28;20594;-72
2022/10/22 05:11:26;;;;;;;14.70;8.53;;;;;;;9.68;100.00;100375.84;5078118;28;20204;-72
2022/10/22 05:13:53;;;;;;;14.43;8.10;;;;;;;9.69;100.00;100372.31;5074551;28;20636;-72
2022/10/22 05:16:19;;;;;;;15.83;8.67;;;;;;;9.73;100.00;100360.97;5080772;28;20711;-72
2022/10/22 05:18:46;;;;;;;16.40;8.43;;;;;;;9.73;100.00;100363.56;5081477;28;20589;-72
2022/10/22 05:21:14;;;;;;;15.40;8.53;;;;;;;9.74;100.00;100368.69;5081282;28;20204;-71
2022/10/22 05:23:41;;;;;;;13.57;7.87;;;;;;;9.73;100.00;100380.03;5082796;28;20299;-72
2022/10/22 05:26:09;;;;;;;14.07;7.90;;;;;;;9.71;100.00;100374.00;5077917;28;20205;-72
2022/10/22 05:28:37;;;;;;;16.37;8.60;;;;;;;9.72;100.00;100383.50;5077962;28;20229;-72
2022/10/22 05:31:05;;;;;;;16.77;8.33;;;;;;;9.74;100.00;100384.31;5079987;28;20204;-72
2022/10/22 05:33:32;;;;;;;15.93;8.83;;;;;;;9.75;100.00;100391.25;5080019;28;20197;-71
2022/10/22 05:36:00;;;;;;;17.67;8.93;;;;;;;9.77;100.00;100383.41;5077123;28;20605;-72
2022/10/22 05:38:27;;;;;;;14.67;7.90;;;;;;;9.79;100.00;100376.41;5081811;28;20303;-71
2022/10/22 05:41:00;;;;;;;14.63;8.93;;;;;;;9.79;100.00;100373.78;5080958;28;20665;-72
2022/10/22 05:43:28;;;;;;;14.00;8.27;;;;;;;9.78;100.00;100372.06;5077567;28;20290;-72
2022/10/22 05:45:56;;;;;;;14.80;8.30;;;;;;;9.80;100.00;100367.69;5077946;28;20249;-71
2022/10/22 05:48:22;;;;;;;16.90;8.97;;;;;;;9.81;100.00;100372.00;5079530;28;20220;-72
2022/10/22 05:50:49;;;;;;;20.00;8.33;;;;;;;9.80;100.00;100378.13;5074031;28;20279;-71
2022/10/22 05:53:16;;;;;;;12.63;7.83;;;;;;;9.78;100.00;100382.50;5081859;28;20200;-72
2022/10/22 05:55:43;;;;;;;13.67;7.70;;;;;;;9.78;100.00;100395.50;5080221;28;20666;-71
2022/10/22 05:58:10;;;;;;;12.67;8.03;;;;;;;9.77;100.00;100399.03;5061363;28;20231;-72
2022/10/22 06:00:36;;;;;;;19.97;8.30;;;;;;;9.76;100.00;100402.50;5079724;28;20511;-72
2022/10/22 06:03:04;;;;;;;16.60;8.43;;;;;;;9.75;100.00;100412.06;5079325;28;20231;-72
2022/10/22 06:05:31;;;;;;;16.27;8.30;;;;;;;9.76;100.00;100411.19;5079292;28;20209;-72
2022/10/22 06:07:57;;;;;;;17.70;8.30;;;;;;;9.79;100.00;100418.06;5077161;28;20247;-72
2022/10/22 06:10:24;;;;;;;14.60;8.17;;;;;;;9.79;100.00;100416.31;5075681;28;20582;-71
2022/10/22 06:12:50;;;;;;;14.90;8.17;;;;;;;9.80;100.00;100420.63;5073328;28;20206;-71
2022/10/22 06:15:19;;;;;;;17.33;9.33;;;;;;;9.85;100.00;100418.75;5076411;28;20215;-71
2022/10/22 06:17:46;;;;;;;13.97;8.00;;;;;;;9.88;100.00;100411.75;5080836;28;20557;-72
2022/10/22 06:20:14;;;;;;;17.43;8.80;;;;;;;9.89;100.00;100416.94;5078889;28;20292;-72
2022/10/22 06:22:41;;;;;;;15.33;8.77;;;;;;;9.93;100.00;100422.91;5077140;28;20204;-71
2022/10/22 06:25:08;;;;;;;18.83;9.80;;;;;;;9.96;100.00;100423.69;5079358;28;20300;-72
2022/10/22 06:27:35;;;;;;;20.40;9.77;;;;;;;9.98;100.00;100434.06;5079729;28;20209;-72
2022/10/22 06:30:01;;;;;;;17.53;9.33;;;;;;;10.00;100.00;100437.47;5081433;28;20215;-72
2022/10/22 06:32:28;;;;;;;18.10;9.50;;;;;;;10.02;100.00;100436.53;5079693;28;20610;-72
2022/10/22 06:34:54;;;;;;;17.23;9.60;;;;;;;10.07;100.00;100432.97;5078332;28;20670;-71
2022/10/22 06:37:22;;;;;;;20.00;9.63;;;;;;;10.12;100.00;100438.91;5075487;28;20206;-72
2022/10/22 06:39:48;;;;;;;17.30;9.43;;;;;;;10.13;100.00;100440.59;5058041;28;20730;-72
2022/10/22 06:42:15;;;;;;;18.23;9.30;;;;;;;10.16;100.00;100430.09;5081089;28;20216;-72
2022/10/22 06:44:41;;;;;;;22.40;9.53;;;;;;;10.20;100.00;100437.78;5076515;28;20219;-71
2022/10/22 06:47:08;;;;;;;16.60;9.97;;;;;;;10.26;100.00;100443.72;5075551;28;20219;-72
2022/10/22 06:49:34;;;;;;;16.23;9.53;;;;;;;10.29;100.00;100446.22;5075207;28;20225;-72
2022/10/22 06:52:00;;;;;;;18.60;9.47;;;;;;;10.33;100.00;100450.50;5075603;28;20205;-72
2022/10/22 06:54:29;;;;;;;17.97;8.60;;;;;;;10.38;100.00;100446.03;5078612;28;20208;-72
2022/10/22 06:56:55;;;;;;;14.73;8.83;;;;;;;10.44;100.00;100445.00;5076422;28;20200;-71
2022/10/22 06:59:22;;;;;;;20.37;9.73;;;;;;;10.50;100.00;100447.41;5080429;28;20764;-72
2022/10/22 07:01:48;;;;;;;14.80;9.10;;;;;;;10.56;100.00;100442.03;5074394;28;20201;-71
2022/10/22 07:04:15;;;;;;;13.53;8.43;;;;;;;10.63;100.00;100455.75;5074801;28;20535;-72
2022/10/22 07:06:41;;;;;;;17.33;9.53;;;;;;;10.68;100.00;100459.94;5077796;28;20198;-72
2022/10/22 07:09:07;;;;;;;20.30;9.00;;;;;;;10.73;100.00;100460.66;5067891;28;20225;-71
2022/10/22 07:11:40;;;;;;;17.73;10.37;;;;;;;10.79;100.00;100452.63;5076061;28;20632;-72
2022/10/22 07:14:06;;;;;;;18.87;9.50;;;;;;;10.84;100.00;100460.34;5072244;28;20367;-72
2022/10/22 07:16:33;;;;;;;20.43;9.60;;;;;;;10.89;100.00;100465.44;5069886;28;20206;-72
2022/10/22 07:18:59;;;;;;;19.17;10.43;;;;;;;10.96;100.00;100472.16;5076531;28;20216;-72
2022/10/22 07:21:26;;;;;;;22.13;11.70;;;;;;;11.00;100.00;100486.81;5076735;28;20207;-72
2022/10/22 07:23:52;;;;;;;20.93;12.30;;;;;;;11.04;100.00;100488.41;5075009;28;20221;-72
2022/10/22 07:26:20;;;;;;;22.03;11.50;;;;;;;11.07;100.00;100490.09;5079404;28;20204;-71
2022/10/22 07:28:47;;;;;;;21.30;11.27;;;;;;;11.10;100.00;100484.75;5073091;28;20229;-71
2022/10/22 07:31:15;;;;;;;23.97;11.83;;;;;;;11.10;100.00;100476.94;5079570;28;20224;-72
2022/10/22 07:33:41;;;;;;;23.50;13.03;;;;;;;11.12;100.00;100490.81;5080009;28;20523;-72
2022/10/22 07:36:11;;;;;;;20.63;11.27;;;;;;;11.15;100.00;100486.34;5077931;28;20583;-72
2022/10/22 07:38:38;;;;;;;16.77;9.43;;;;;;;11.18;100.00;100481.03;5082533;28;20236;-72
2022/10/22 07:41:04;;;;;;;21.83;12.23;;;;;;;11.22;100.00;100491.38;5079667;28;20209;-72
2022/10/22 07:43:31;;;;;;;32.53;14.67;;;;;;;11.25;100.00;100492.13;5078676;28;20284;-72
2022/10/22 07:45:59;;;;;;;23.83;11.63;;;;;;;11.31;100.00;100505.00;5081790;28;20697;-71
2022/10/22 07:48:25;;;;;;;23.87;12.57;;;;;;;11.35;100.00;100498.78;5082475;28;20257;-72
2022/10/22 07:50:52;;;;;;;23.67;11.90;;;;;;;11.39;100.00;100503.91;5077799;28;20201;-72
2022/10/22 07:53:20;;;;;;;26.50;11.37;;;;;;;11.40;100.00;100511.69;5076453;28;20205;-72
2022/10/22 07:55:48;;;;;;;16.67;9.90;;;;;;;11.45;100.00;100511.53;5079693;28;20201;-73
2022/10/22 07:58:14;;;;;;;20.83;10.33;;;;;;;11.46;100.00;100523.69;5076761;28;20217;-72
2022/10/22 08:00:40;;;;;;;18.10;9.40;;;;;;;11.49;100.00;100528.81;5079464;28;20206;-72
2022/10/22 08:03:10;;;;;;;17.80;9.60;;;;;;;11.52;100.00;100531.31;5083495;28;20198;-71
2022/10/22 08:05:38;;;;;;;14.03;9.03;;;;;;;11.55;100.00;100526.84;5082660;28;20210;-73
2022/10/22 08:08:04;;;;;;;15.47;9.23;;;;;;;11.58;100.00;100525.06;5079058;28;20433;-71
2022/10/22 08:10:31;;;;;;;16.43;9.60;;;;;;;11.61;100.00;100518.00;5080728;28;20206;-72
2022/10/22 08:12:57;;;;;;;20.33;11.37;;;;;;;11.65;100.00;100518.75;5080828;28;20196;-71
2022/10/22 08:15:26;;;;;;;25.63;13.47;;;;;;;11.71;100.00;100523.75;5080107;28;20206;-72
2022/10/22 08:17:53;;;;;;;33.10;14.13;;;;;;;11.74;100.00;100521.91;5080877;28;20219;-72
2022/10/22 08:20:20;;;;;;;34.07;15.70;;;;;;;11.80;100.00;100520.84;5080755;28;20570;-72
2022/10/22 08:22:47;;;;;;;26.47;12.93;;;;;;;11.83;100.00;100514.69;5080519;28;20211;-71
2022/10/22 08:25:14;;;;;;;26.97;12.03;;;;;;;11.86;100.00;100512.81;5081229;28;20271;-71
2022/10/22 08:27:41;;;;;;;29.37;14.80;;;;;;;11.89;100.00;100510.09;5079302;28;20500;-72
2022/10/22 08:30:08;;;;;;;25.67;13.70;;;;;;;11.92;100.00;100512.66;5079914;28;20220;-72
2022/10/22 08:32:35;;;;;;;22.47;12.70;;;;;;;11.97;100.00;100522.09;5077553;28;20196;-72
2022/10/22 08:35:01;;;;;;;23.97;11.60;;;;;;;11.99;100.00;100528.13;5074028;28;20578;-72
2022/10/22 08:37:29;;;;;;;20.10;10.47;;;;;;;11.99;100.00;100533.34;5076369;28;20208;-72
2022/10/22 08:39:55;;;;;;;17.60;10.27;;;;;;;11.99;100.00;100534.19;5087848;22;20314;-72
2022/10/22 08:42:44;;;;;;;21.67;11.47;;;;;;;11.99;100.00;100549.84;5047622;28;20224;-72
2022/10/22 08:45:15;;;;;;;17.23;10.20;;;;;;;12.00;100.00;100548.13;5040797;28;20222;-72
2022/10/22 08:47:58;;;;;;;19.03;9.30;;;;;;;12.04;100.00;100547.09;5041765;28;20214;-72
2022/10/22 08:50:48;;;;;;;19.90;10.07;;;;;;;12.07;100.00;100552.25;5039401;28;20203;-72
2022/10/22 08:53:19;;;;;;;16.40;9.10;;;;;;;12.09;100.00;100564.34;5013106;28;20218;-72
2022/10/22 08:55:47;;;;;;;17.97;9.73;;;;;;;12.14;100.00;100558.97;5014998;28;20550;-72
2022/10/22 08:58:21;;;;;;;19.10;9.37;;;;;;;12.19;100.00;100566.63;5018909;28;20477;-71
2022/10/22 09:00:56;;;;;;;15.03;8.77;;;;;;;12.23;100.00;100569.09;5021401;28;20226;-72
2022/10/22 09:03:34;;;;;;;18.37;9.27;;;;;;;12.29;100.00;100568.91;5018403;28;20200;-71
2022/10/22 09:06:08;;;;;;;15.43;9.37;;;;;;;12.34;100.00;100570.50;5019196;28;20297;-71
2022/10/22 09:08:37;;;;;;;16.73;8.47;;;;;;;12.35;100.00;100562.59;5019845;28;20207;-72
2022/10/22 09:11:13;;;;;;;16.97;9.60;;;;;;;12.38;100.00;100559.00;5017140;28;20226;-71
2022/10/22 09:13:42;;;;;;;15.73;8.93;;;;;;;12.41;100.00;100551.06;5013894;28;20206;-71
2022/10/22 09:16:15;;;;;;;18.83;9.27;;;;;;;12.45;100.00;100550.94;5018427;28;20210;-71
2022/10/22 09:18:50;;;;;;;19.10;9.30;;;;;;;12.48;100.00;100547.34;5016592;28;20711;-70
2022/10/22 09:21:28;;;;;;;16.60;9.47;;;;;;;12.54;100.00;100539.28;5016343;28;20526;-71
2022/10/22 09:24:04;;;;;;;21.20;10.30;;;;;;;12.62;100.00;100544.22;5018989;28;20199;-71
2022/10/22 09:26:34;;;;;;;20.63;9.30;;;;;;;12.67;100.00;100543.16;5013282;28;21297;-71
2022/10/22 09:29:02;;;;;;;15.77;8.93;;;;;;;12.77;100.00;100545.44;5015164;28;20428;-71
2022/10/22 09:31:30;;;;;;;15.30;8.90;;;;;;;12.88;100.00;100548.53;5007984;28;20246;-71
2022/10/22 09:33:58;;;;;;;16.30;9.47;;;;;;;12.95;100.00;100542.16;5013799;28;20209;-71
2022/10/22 09:36:25;;;;;;;16.63;9.40;;;;;;;13.03;100.00;100541.84;5014049;28;20836;-72
2022/10/22 09:38:53;;;;;;;17.47;9.23;;;;;;;13.12;100.00;100554.63;5017338;28;20308;-72
2022/10/22 09:41:25;;;;;;;15.73;9.23;;;;;;;13.20;100.00;100552.53;5017120;28;20766;-71
2022/10/22 09:43:51;;;;;;;16.20;8.77;;;;;;;13.23;100.00;100557.66;5017311;28;20275;-71
2022/10/22 09:46:20;;;;;;;19.07;9.97;;;;;;;13.24;100.00;100562.00;5014918;28;20427;-71
2022/10/22 09:48:49;;;;;;;17.07;9.47;;;;;;;13.24;100.00;100563.75;5018079;28;20207;-72
2022/10/22 09:51:20;;;;;;;13.90;8.37;;;;;;;13.30;100.00;100570.50;5016075;28;20477;-71
2022/10/22 09:53:54;;;;;;;19.10;10.00;;;;;;;13.37;100.00;100565.03;5019210;28;20192;-71
2022/10/22 09:56:26;;;;;;;16.63;9.73;;;;;;;13.44;100.00;100566.50;5018643;28;20299;-71
2022/10/22 09:58:55;;;;;;;20.57;10.03;;;;;;;13.48;100.00;100563.75;5017125;28;20204;-71
2022/10/22 10:01:25;;;;;;;14.70;9.27;;;;;;;13.49;100.00;100573.31;5020147;28;20223;-71
2022/10/22 10:03:52;;;;;;;14.10;9.00;;;;;;;13.50;100.00;100567.16;5019162;28;20192;-71
2022/10/22 10:06:20;;;;;;;13.40;7.93;;;;;;;13.51;100.00;100569.72;5021118;28;20238;-71
2022/10/22 10:08:46;;;;;;;15.90;9.50;;;;;;;13.57;100.00;100579.94;5019978;28;20220;-71
2022/10/22 10:11:21;;;;;;;20.40;9.13;;;;;;;13.63;100.00;100576.22;5021565;28;20306;-71
2022/10/22 10:13:56;;;;;;;16.70;8.63;;;;;;;13.73;100.00;100581.97;5016503;28;20215;-71
2022/10/22 10:16:36;;;;;;;15.00;8.47;;;;;;;13.83;100.00;100581.53;5017685;28;20214;-72
2022/10/22 10:19:19;;;;;;;15.60;8.67;;;;;;;13.98;100.00;100589.69;5018546;28;20211;-71
2022/10/22 10:21:54;;;;;;;12.90;8.77;;;;;;;14.08;100.00;100587.56;5016557;28;20238;-71
2022/10/22 10:24:28;;;;;;;13.87;8.47;;;;;;;14.14;100.00;100582.91;5017810;28;20556;-72
2022/10/22 10:27:01;;;;;;;13.93;8.30;;;;;;;14.20;100.00;100582.63;5017680;28;20206;-71
2022/10/22 10:29:43;;;;;;;15.43;8.40;;;;;;;14.25;100.00;100577.22;5014580;28;20228;-72
2022/10/22 10:32:27;;;;;;;13.03;7.80;;;;;;;14.27;100.00;100572.75;5018374;28;20236;-71
2022/10/22 10:35:04;;;;;;;11.17;7.07;;;;;;;14.34;100.00;100562.88;5016421;28;20242;-71
2022/10/22 10:37:38;;;;;;;11.73;7.07;;;;;;;14.44;100.00;100574.66;5016487;28;20204;-71
2022/10/22 10:40:20;;;;;;;10.60;6.93;;;;;;;14.57;100.00;100570.56;5017192;28;20571;-71
2022/10/22 10:42:58;;;;;;;10.13;6.27;;;;;;;14.65;100.00;100569.41;5016061;28;20593;-71
2022/10/22 10:45:32;;;;;;;9.83;6.70;;;;;;;14.75;100.00;100568.09;5017516;28;20715;-72
2022/10/22 10:48:29;;;;;;;10.47;6.43;;;;;;;14.88;100.00;100573.66;5014774;28;20199;-72
2022/10/22 10:51:05;;;;;;;8.03;5.97;;;;;;;14.95;100.00;100565.44;5019067;28;20234;-72
2022/10/22 10:53:44;;;;;;;9.30;6.07;;;;;;;15.05;100.00;100565.00;5016293;28;20574;-71
2022/10/22 10:56:29;;;;;;;7.37;5.40;;;;;;;15.03;100.00;100572.13;5012345;28;20468;-72
2022/10/22 10:59:10;;;;;;;6.93;5.07;;;;;;;15.10;100.00;100573.53;5012904;28;20958;-71
2022/10/22 11:01:49;;;;;;;9.47;5.07;;;;;;;15.10;100.00;100574.38;5008777;28;20227;-71
2022/10/22 11:04:41;;;;;;;7.37;5.13;;;;;;;15.17;100.00;100580.22;5012161;28;20704;-71
2022/10/22 11:07:12;;;;;;;6.70;5.03;;;;;;;15.27;100.00;100588.53;5017782;28;20694;-71
2022/10/22 11:09:44;;;;;;;6.43;5.30;;;;;;;15.32;100.00;100581.28;5016616;28;20325;-71
2022/10/22 11:12:16;;;;;;;6.43;4.67;;;;;;;15.35;100.00;100586.38;5021186;28;20227;-72
2022/10/22 11:14:52;;;;;;;7.70;5.20;;;;;;;15.49;100.00;100585.72;5020686;28;20199;-72
2022/10/22 11:17:24;;;;;;;9.07;5.70;;;;;;;15.61;100.00;100586.94;5018137;28;20246;-71
2022/10/22 11:19:58;;;;;;;5.77;4.43;;;;;;;15.64;100.00;100586.81;5019783;28;20567;-71
2022/10/22 11:22:31;;;;;;;7.33;5.63;;;;;;;15.59;100.00;100587.00;5019593;28;20231;-71